createdAt,value
2018-12-19T00:00:15.740Z,979.2
2018-12-19T00:01:17.038Z,979.1
2018-12-19T00:02:20.102Z,979
2018-12-19T00:03:23.807Z,979.1
2018-12-19T00:04:25.459Z,979.1
2018-12-19T00:05:26.777Z,979.1
2018-12-19T00:06:28.131Z,979.1
2018-12-19T00:07:29.475Z,979
2018-12-19T00:08:31.966Z,979.1
2018-12-19T00:09:33.264Z,979.1
2018-12-19T00:10:36.219Z,979.1
2018-12-19T00:11:37.519Z,979
2018-12-19T00:12:38.771Z,979
2018-12-19T00:13:43.059Z,978.9
2018-12-19T00:14:44.544Z,978.9
2018-12-19T00:15:45.800Z,978.9
2018-12-19T00:16:47.045Z,978.9
2018-12-19T00:17:48.556Z,978.9
2018-12-19T00:18:49.795Z,978.9
2018-12-19T00:19:51.084Z,978.8
2018-12-19T00:20:52.339Z,978.8
2018-12-19T00:21:53.633Z,978.8
2018-12-19T00:22:54.919Z,978.7
2018-12-19T00:23:56.180Z,978.7
2018-12-19T00:24:57.524Z,978.7
2018-12-19T00:25:58.792Z,978.7
2018-12-19T00:27:00.028Z,978.7
2018-12-19T00:28:01.280Z,978.7
2018-12-19T00:29:02.529Z,978.6
2018-12-19T00:30:07.023Z,978.6
2018-12-19T00:31:08.284Z,978.5
2018-12-19T00:32:09.540Z,978.5
2018-12-19T00:33:10.935Z,978.5
2018-12-19T00:34:12.171Z,978.4
2018-12-19T00:35:13.470Z,978.3
2018-12-19T00:36:14.719Z,978.3
2018-12-19T00:37:20.035Z,978.3
2018-12-19T00:38:21.283Z,978.3
2018-12-19T00:39:23.527Z,978.3
2018-12-19T00:40:24.877Z,978.3
2018-12-19T00:41:26.195Z,978.3
2018-12-19T00:42:27.861Z,978.3
2018-12-19T00:43:29.296Z,978.2
2018-12-19T00:44:32.722Z,978.2
2018-12-19T00:45:34.105Z,978.2
2018-12-19T00:46:35.363Z,978.1
2018-12-19T00:47:38.878Z,978.2
2018-12-19T00:48:40.160Z,978
2018-12-19T00:49:42.420Z,978.2
2018-12-19T00:50:43.721Z,978.2
2018-12-19T00:51:45.327Z,978.1
2018-12-19T00:52:46.563Z,978.2
2018-12-19T00:53:48.060Z,978.1
2018-12-19T00:54:49.322Z,978.1
2018-12-19T00:55:50.625Z,978.1
2018-12-19T00:56:53.089Z,978.2
2018-12-19T00:57:54.374Z,978.3
2018-12-19T00:58:57.267Z,978.3
2018-12-19T00:59:58.556Z,978.2
2018-12-19T01:00:59.869Z,978.1
2018-12-19T01:02:01.160Z,978.2
2018-12-19T01:03:02.483Z,978.2
2018-12-19T01:04:03.755Z,978.2
2018-12-19T01:05:05.027Z,978.2
2018-12-19T01:06:06.310Z,978.2
2018-12-19T01:07:07.566Z,978.1
2018-12-19T01:08:08.811Z,978.2
2018-12-19T01:09:16.490Z,978
2018-12-19T01:10:17.954Z,978.1
2018-12-19T01:11:19.355Z,978
2018-12-19T01:12:20.630Z,978
2018-12-19T01:13:21.856Z,978
2018-12-19T01:14:23.195Z,978
2018-12-19T01:15:24.499Z,977.9
2018-12-19T01:16:28.199Z,977.9
2018-12-19T01:17:29.432Z,977.9
2018-12-19T01:18:30.768Z,977.9
2018-12-19T01:19:33.116Z,977.9
2018-12-19T01:20:34.688Z,977.9
2018-12-19T01:21:36.047Z,977.9
2018-12-19T01:22:37.344Z,977.9
2018-12-19T01:23:38.579Z,977.9
2018-12-19T01:24:41.727Z,977.9
2018-12-19T01:25:42.955Z,977.9
2018-12-19T01:26:44.240Z,977.9
2018-12-19T01:27:46.523Z,977.8
2018-12-19T01:28:47.806Z,977.8
2018-12-19T01:29:49.074Z,977.9
2018-12-19T01:30:50.343Z,977.8
2018-12-19T01:31:51.610Z,977.8
2018-12-19T01:32:52.843Z,977.8
2018-12-19T01:33:54.095Z,977.8
2018-12-19T01:34:55.382Z,977.8
2018-12-19T01:35:56.625Z,977.8
2018-12-19T01:36:57.912Z,977.8
2018-12-19T01:37:59.211Z,977.8
2018-12-19T01:39:00.449Z,977.9
2018-12-19T01:40:01.688Z,977.8
2018-12-19T01:41:02.975Z,977.9
2018-12-19T01:42:04.282Z,977.8
2018-12-19T01:43:05.530Z,977.8
2018-12-19T01:44:06.782Z,977.8
2018-12-19T01:45:08.063Z,977.9
2018-12-19T01:46:09.315Z,977.8
2018-12-19T01:47:10.624Z,977.8
2018-12-19T01:48:11.911Z,977.9
2018-12-19T01:49:13.165Z,977.8
2018-12-19T01:50:14.415Z,977.8
2018-12-19T01:51:15.694Z,977.9
2018-12-19T01:52:17.010Z,977.8
2018-12-19T01:53:18.268Z,977.8
2018-12-19T01:54:19.582Z,977.9
2018-12-19T01:55:20.879Z,977.9
2018-12-19T01:56:24.918Z,977.8
2018-12-19T01:57:26.212Z,977.8
2018-12-19T01:58:27.469Z,977.8
2018-12-19T01:59:28.726Z,977.8
2018-12-19T02:00:30.325Z,977.8
2018-12-19T02:01:31.588Z,977.9
2018-12-19T02:02:34.856Z,977.9
2018-12-19T02:03:36.232Z,977.8
2018-12-19T02:04:37.807Z,977.8
2018-12-19T02:05:39.039Z,977.7
2018-12-19T02:06:40.318Z,977.7
2018-12-19T02:07:41.615Z,977.7
2018-12-19T02:08:42.858Z,977.7
2018-12-19T02:09:45.062Z,977.7
2018-12-19T02:10:46.295Z,977.7
2018-12-19T02:11:48.622Z,977.7
2018-12-19T02:12:49.903Z,977.7
2018-12-19T02:13:53.511Z,977.8
2018-12-19T02:14:57.419Z,977.7
2018-12-19T02:15:58.685Z,977.8
2018-12-19T02:16:59.952Z,977.8
2018-12-19T02:18:01.242Z,977.8
2018-12-19T02:19:02.530Z,977.8
2018-12-19T02:20:03.784Z,977.6
2018-12-19T02:21:07.493Z,977.7
2018-12-19T02:22:08.750Z,977.7
2018-12-19T02:23:10.021Z,977.7
2018-12-19T02:24:11.300Z,977.7
2018-12-19T02:25:12.543Z,977.6
2018-12-19T02:26:13.783Z,977.7
2018-12-19T02:27:15.036Z,977.8
2018-12-19T02:28:19.094Z,977.7
2018-12-19T02:29:20.356Z,977.7
2018-12-19T02:30:23.635Z,977.7
2018-12-19T02:31:24.960Z,977.7
2018-12-19T02:32:26.208Z,977.6
2018-12-19T02:33:27.811Z,977.6
2018-12-19T02:34:29.689Z,977.6
2018-12-19T02:35:31.000Z,977.6
2018-12-19T02:36:32.255Z,977.5
2018-12-19T02:37:33.490Z,977.5
2018-12-19T02:38:34.790Z,977.5
2018-12-19T02:39:37.110Z,977.5
2018-12-19T02:40:38.364Z,977.4
2018-12-19T02:41:39.635Z,977.5
2018-12-19T02:42:40.888Z,977.5
2018-12-19T02:43:42.180Z,977.5
2018-12-19T02:44:43.485Z,977.5
2018-12-19T02:45:47.131Z,977.5
2018-12-19T02:46:48.394Z,977.3
2018-12-19T02:47:49.652Z,977.3
2018-12-19T02:48:50.966Z,977.3
2018-12-19T02:49:52.248Z,977.3
2018-12-19T02:50:53.471Z,977.3
2018-12-19T02:51:56.973Z,977.3
2018-12-19T02:52:58.344Z,977.3
2018-12-19T02:53:59.630Z,977.1
2018-12-19T02:55:03.963Z,977.1
2018-12-19T02:56:05.232Z,977.2
2018-12-19T02:57:06.639Z,977.3
2018-12-19T02:58:07.908Z,977.3
2018-12-19T02:59:09.231Z,977.3
2018-12-19T03:00:11.519Z,977.3
2018-12-19T03:01:12.845Z,977.3
2018-12-19T03:02:14.163Z,977.2
2018-12-19T03:03:15.435Z,977.3
2018-12-19T03:04:16.803Z,977.3
2018-12-19T03:05:18.137Z,977.3
2018-12-19T03:06:19.403Z,977.3
2018-12-19T03:07:20.659Z,977.3
2018-12-19T03:08:21.935Z,977.2
2018-12-19T03:09:23.213Z,977.2
2018-12-19T03:10:24.453Z,977.1
2018-12-19T03:11:25.739Z,977.2
2018-12-19T03:12:28.514Z,977.1
2018-12-19T03:13:29.922Z,977.1
2018-12-19T03:14:33.386Z,977.2
2018-12-19T03:15:34.615Z,977.1
2018-12-19T03:16:35.897Z,977.1
2018-12-19T03:17:37.161Z,977
2018-12-19T03:18:38.425Z,976.9
2018-12-19T03:19:39.737Z,976.9
2018-12-19T03:20:40.982Z,976.9
2018-12-19T03:21:42.567Z,976.9
2018-12-19T03:22:43.811Z,976.9
2018-12-19T03:23:46.898Z,976.9
2018-12-19T03:24:48.194Z,976.9
2018-12-19T03:25:49.455Z,976.9
2018-12-19T03:26:50.699Z,976.8
2018-12-19T03:27:51.943Z,976.8
2018-12-19T03:28:58.678Z,976.9
2018-12-19T03:29:59.960Z,976.9
2018-12-19T03:31:01.232Z,976.8
2018-12-19T03:32:02.552Z,976.8
2018-12-19T03:33:03.813Z,976.8
2018-12-19T03:34:05.110Z,976.7
2018-12-19T03:35:06.410Z,976.7
2018-12-19T03:36:07.656Z,976.7
2018-12-19T03:37:08.923Z,976.7
2018-12-19T03:38:10.224Z,976.7
2018-12-19T03:39:11.538Z,976.7
2018-12-19T03:40:12.880Z,976.7
2018-12-19T03:41:14.149Z,976.7
2018-12-19T03:42:15.523Z,976.7
2018-12-19T03:43:16.814Z,976.7
2018-12-19T03:44:18.070Z,976.8
2018-12-19T03:45:19.360Z,976.7
2018-12-19T03:46:20.608Z,976.6
2018-12-19T03:47:21.864Z,976.6
2018-12-19T03:48:25.986Z,976.7
2018-12-19T03:49:27.216Z,976.7
2018-12-19T03:50:28.492Z,976.7
2018-12-19T03:51:29.740Z,976.7
2018-12-19T03:52:31.004Z,976.7
2018-12-19T03:53:32.248Z,976.8
2018-12-19T03:54:33.534Z,976.7
2018-12-19T03:55:34.831Z,976.8
2018-12-19T03:56:36.070Z,976.9
2018-12-19T03:57:37.331Z,976.8
2018-12-19T03:58:38.574Z,976.8
2018-12-19T03:59:41.115Z,976.8
2018-12-19T04:00:42.599Z,976.8
2018-12-19T04:01:43.861Z,976.9
2018-12-19T04:02:52.412Z,976.9
2018-12-19T04:03:53.644Z,976.9
2018-12-19T04:04:54.893Z,976.9
2018-12-19T04:05:56.191Z,976.9
2018-12-19T04:06:57.443Z,976.9
2018-12-19T04:07:58.720Z,976.9
2018-12-19T04:08:59.964Z,976.8
2018-12-19T04:10:01.236Z,976.9
2018-12-19T04:11:02.531Z,977
2018-12-19T04:12:03.801Z,976.9
2018-12-19T04:13:05.042Z,976.9
2018-12-19T04:14:06.301Z,976.9
2018-12-19T04:15:07.611Z,976.9
2018-12-19T04:16:08.887Z,976.9
2018-12-19T04:17:10.133Z,977
2018-12-19T04:18:11.363Z,977
2018-12-19T04:19:12.683Z,976.9
2018-12-19T04:20:13.931Z,976.9
2018-12-19T04:21:15.227Z,976.9
2018-12-19T04:22:18.170Z,976.8
2018-12-19T04:23:19.445Z,976.8
2018-12-19T04:24:20.726Z,976.9
2018-12-19T04:25:21.984Z,976.9
2018-12-19T04:26:23.283Z,977
2018-12-19T04:27:24.534Z,976.9
2018-12-19T04:28:31.063Z,976.9
2018-12-19T04:29:32.321Z,976.9
2018-12-19T04:30:33.568Z,976.9
2018-12-19T04:31:34.848Z,976.9
2018-12-19T04:32:38.849Z,976.9
2018-12-19T04:33:40.084Z,977
2018-12-19T04:34:41.354Z,977
2018-12-19T04:35:42.632Z,977
2018-12-19T04:36:43.958Z,977
2018-12-19T04:37:45.178Z,976.9
2018-12-19T04:38:46.425Z,976.9
2018-12-19T04:39:47.655Z,976.9
2018-12-19T04:40:49.163Z,976.9
2018-12-19T04:41:50.461Z,977
2018-12-19T04:42:52.683Z,977
2018-12-19T04:43:53.994Z,977.1
2018-12-19T04:44:55.314Z,977
2018-12-19T04:45:56.571Z,977.1
2018-12-19T04:46:57.863Z,977
2018-12-19T04:47:59.114Z,977
2018-12-19T04:49:00.368Z,977.1
2018-12-19T04:50:01.687Z,976.7
2018-12-19T04:51:02.931Z,977
2018-12-19T04:52:04.234Z,977.1
2018-12-19T04:53:05.501Z,977.1
2018-12-19T04:54:06.753Z,977
2018-12-19T04:55:08.012Z,977
2018-12-19T04:56:09.301Z,977
2018-12-19T04:57:10.570Z,976.9
2018-12-19T04:58:11.839Z,977
2018-12-19T04:59:13.084Z,977.1
2018-12-19T05:00:14.323Z,977
2018-12-19T05:01:15.576Z,977
2018-12-19T05:02:16.840Z,977
2018-12-19T05:03:18.111Z,977
2018-12-19T05:04:19.355Z,977
2018-12-19T05:05:20.596Z,977
2018-12-19T05:06:21.899Z,977.1
2018-12-19T05:07:23.192Z,977
2018-12-19T05:08:24.455Z,977
2018-12-19T05:09:25.726Z,977
2018-12-19T05:10:26.974Z,977
2018-12-19T05:11:28.227Z,977
2018-12-19T05:12:29.523Z,977
2018-12-19T05:13:35.582Z,977
2018-12-19T05:14:36.833Z,976.9
2018-12-19T05:15:38.091Z,976.9
2018-12-19T05:16:39.327Z,976.9
2018-12-19T05:17:42.283Z,976.8
2018-12-19T05:18:43.552Z,976.8
2018-12-19T05:19:44.797Z,976.8
2018-12-19T05:20:46.045Z,976.8
2018-12-19T05:21:47.287Z,976.8
2018-12-19T05:22:48.611Z,976.7
2018-12-19T05:23:49.934Z,976.7
2018-12-19T05:24:51.191Z,976.7
2018-12-19T05:25:52.460Z,976.7
2018-12-19T05:26:53.700Z,976.8
2018-12-19T05:27:55.222Z,976.8
2018-12-19T05:28:56.452Z,976.9
2018-12-19T05:30:00.143Z,976.9
2018-12-19T05:31:01.412Z,976.9
2018-12-19T05:32:02.646Z,976.9
2018-12-19T05:33:03.934Z,976.9
2018-12-19T05:34:05.173Z,976.9
2018-12-19T05:35:06.428Z,976.9
2018-12-19T05:36:07.700Z,976.9
2018-12-19T05:37:09.644Z,976.9
2018-12-19T05:38:10.968Z,977
2018-12-19T05:39:12.219Z,976.9
2018-12-19T05:40:19.525Z,977
2018-12-19T05:41:20.760Z,976.9
2018-12-19T05:42:22.007Z,976.6
2018-12-19T05:43:23.310Z,976.6
2018-12-19T05:44:24.604Z,976.6
2018-12-19T05:45:27.171Z,976.6
2018-12-19T05:46:28.417Z,976.7
2018-12-19T05:47:29.705Z,976.7
2018-12-19T05:48:31.024Z,976.7
2018-12-19T05:49:32.247Z,976.7
2018-12-19T05:50:34.102Z,976.7
2018-12-19T05:51:35.367Z,976.7
2018-12-19T05:52:36.627Z,976.7
2018-12-19T05:53:37.984Z,976.7
2018-12-19T05:54:39.228Z,976.7
2018-12-19T05:55:40.483Z,976.7
2018-12-19T05:56:41.740Z,976.7
2018-12-19T05:57:43.077Z,976.8
2018-12-19T05:58:44.389Z,976.8
2018-12-19T05:59:47.982Z,976.8
2018-12-19T06:00:49.240Z,976.7
2018-12-19T06:01:50.490Z,976.7
2018-12-19T06:02:51.768Z,976.8
2018-12-19T06:03:53.044Z,976.8
2018-12-19T06:04:54.303Z,976.8
2018-12-19T06:05:55.567Z,976.8
2018-12-19T06:06:56.811Z,976.8
2018-12-19T06:07:58.261Z,976.8
2018-12-19T06:09:00.328Z,976.8
2018-12-19T06:10:03.484Z,976.8
2018-12-19T06:11:04.768Z,976.8
2018-12-19T06:12:06.472Z,976.7
2018-12-19T06:13:09.686Z,976.7
2018-12-19T06:14:14.186Z,976.7
2018-12-19T06:15:15.615Z,976.7
2018-12-19T06:16:16.925Z,976.7
2018-12-19T06:17:18.159Z,976.7
2018-12-19T06:18:19.406Z,976.8
2018-12-19T06:19:20.673Z,976.7
2018-12-19T06:20:21.916Z,976.8
2018-12-19T06:21:23.181Z,976.8
2018-12-19T06:22:24.434Z,976.9
2018-12-19T06:23:25.692Z,976.9
2018-12-19T06:24:27.014Z,976.9
2018-12-19T06:25:28.290Z,976.9
2018-12-19T06:26:30.897Z,976.9
2018-12-19T06:27:32.155Z,976.8
2018-12-19T06:28:33.648Z,976.9
2018-12-19T06:29:34.947Z,976.9
2018-12-19T06:30:36.381Z,976.9
2018-12-19T06:31:37.619Z,976.8
2018-12-19T06:32:38.911Z,976.9
2018-12-19T06:33:40.141Z,976.8
2018-12-19T06:34:41.457Z,976.8
2018-12-19T06:35:42.995Z,976.9
2018-12-19T06:36:44.315Z,976.8
2018-12-19T06:37:45.568Z,976.9
2018-12-19T06:38:46.845Z,976.9
2018-12-19T06:39:48.459Z,976.9
2018-12-19T06:40:49.703Z,976.9
2018-12-19T06:41:50.945Z,976.9
2018-12-19T06:42:54.356Z,976.9
2018-12-19T06:43:55.604Z,976.9
2018-12-19T06:44:56.988Z,976.9
2018-12-19T06:45:59.103Z,976.9
2018-12-19T06:47:02.310Z,977
2018-12-19T06:48:03.525Z,976.9
2018-12-19T06:49:06.604Z,977
2018-12-19T06:50:07.887Z,976.9
2018-12-19T06:51:09.372Z,976.9
2018-12-19T06:52:10.638Z,976.9
2018-12-19T06:53:11.955Z,976.9
2018-12-19T06:54:13.276Z,976.9
2018-12-19T06:55:14.589Z,977
2018-12-19T06:56:15.994Z,976.9
2018-12-19T06:57:17.271Z,976.9
2018-12-19T06:58:18.529Z,976.9
2018-12-19T06:59:22.340Z,976.9
2018-12-19T07:00:26.212Z,976.9
2018-12-19T07:01:27.611Z,976.9
2018-12-19T07:02:28.889Z,976.8
2018-12-19T07:03:30.168Z,976.8
2018-12-19T07:04:31.463Z,976.8
2018-12-19T07:05:37.423Z,976.8
2018-12-19T07:06:38.674Z,976.8
2018-12-19T07:07:41.888Z,976.8
2018-12-19T07:08:43.309Z,976.6
2018-12-19T07:09:45.672Z,976.8
2018-12-19T07:10:46.965Z,976.8
2018-12-19T07:11:48.238Z,976.8
2018-12-19T07:12:49.527Z,976.8
2018-12-19T07:13:50.807Z,976.9
2018-12-19T07:14:52.093Z,976.9
2018-12-19T07:15:55.089Z,976.9
2018-12-19T07:16:56.433Z,976.9
2018-12-19T07:17:58.404Z,977
2018-12-19T07:18:59.671Z,977
2018-12-19T07:20:00.925Z,977
2018-12-19T07:21:04.637Z,977
2018-12-19T07:22:05.885Z,977
2018-12-19T07:23:07.163Z,977
2018-12-19T07:24:08.494Z,977.1
2018-12-19T07:25:09.772Z,977.1
2018-12-19T07:26:11.055Z,977.1
2018-12-19T07:27:12.403Z,977.1
2018-12-19T07:28:17.208Z,977.1
2018-12-19T07:29:21.191Z,977
2018-12-19T07:30:22.472Z,977.1
2018-12-19T07:31:24.817Z,977
2018-12-19T07:32:26.069Z,977.1
2018-12-19T07:33:27.347Z,977.1
2018-12-19T07:34:28.647Z,977.1
2018-12-19T07:35:32.179Z,977
2018-12-19T07:36:33.600Z,977.1
2018-12-19T07:37:34.913Z,977.1
2018-12-19T07:38:36.394Z,977
2018-12-19T07:39:37.662Z,977
2018-12-19T07:40:38.925Z,977
2018-12-19T07:41:40.255Z,977
2018-12-19T07:42:41.992Z,977
2018-12-19T07:43:48.980Z,977
2018-12-19T07:44:50.253Z,977
2018-12-19T07:45:51.756Z,977.1
2018-12-19T07:46:56.084Z,977
2018-12-19T07:47:57.408Z,977
2018-12-19T07:48:58.679Z,977
2018-12-19T07:49:59.966Z,977
2018-12-19T07:51:01.407Z,977.1
2018-12-19T07:52:02.695Z,977
2018-12-19T07:53:03.950Z,977.1
2018-12-19T07:54:08.212Z,977.3
2018-12-19T07:55:09.508Z,977.3
2018-12-19T07:56:10.783Z,977.3
2018-12-19T07:57:12.121Z,977.4
2018-12-19T07:58:13.390Z,977.3
2018-12-19T07:59:14.643Z,977.3
2018-12-19T08:00:15.906Z,977.3
2018-12-19T08:01:18.201Z,977.3
2018-12-19T08:02:19.529Z,977.3
2018-12-19T08:03:20.827Z,977.2
2018-12-19T08:04:22.090Z,977.2
2018-12-19T08:05:26.967Z,977.3
2018-12-19T08:06:28.241Z,977.3
2018-12-19T08:07:29.923Z,977.3
2018-12-19T08:08:31.232Z,977.3
2018-12-19T08:09:32.975Z,977.4
2018-12-19T08:10:34.251Z,977.4
2018-12-19T08:11:35.536Z,977.4
2018-12-19T08:12:37.079Z,977.4
2018-12-19T08:13:38.357Z,977.5
2018-12-19T08:14:39.632Z,977.5
2018-12-19T08:15:40.937Z,977.5
2018-12-19T08:16:42.203Z,977.5
2018-12-19T08:17:43.497Z,977.5
2018-12-19T08:18:44.777Z,977.4
2018-12-19T08:19:48.833Z,977.3
2018-12-19T08:20:50.276Z,977.3
2018-12-19T08:21:51.711Z,977.3
2018-12-19T08:22:53.012Z,977.3
2018-12-19T08:23:55.833Z,977.3
2018-12-19T08:24:57.936Z,977.4
2018-12-19T08:25:59.388Z,977.3
2018-12-19T08:27:02.137Z,977.3
2018-12-19T08:28:03.671Z,977.3
2018-12-19T08:29:05.275Z,977.3
2018-12-19T08:30:06.808Z,977.3
2018-12-19T08:31:08.085Z,977.2
2018-12-19T08:32:09.447Z,977.4
2018-12-19T08:33:13.241Z,977.4
2018-12-19T08:34:14.535Z,977.6
2018-12-19T08:35:16.158Z,977.5
2018-12-19T08:36:17.691Z,977.6
2018-12-19T08:37:19.338Z,977.6
2018-12-19T08:38:20.636Z,977.6
2018-12-19T08:39:21.899Z,977.6
2018-12-19T08:40:24.972Z,977.5
2018-12-19T08:41:26.277Z,977.6
2018-12-19T08:42:31.958Z,977.5
2018-12-19T08:43:33.280Z,977.5
2018-12-19T08:44:34.572Z,977.5
2018-12-19T08:45:36.999Z,977.5
2018-12-19T08:46:38.305Z,977.5
2018-12-19T08:47:39.630Z,977.6
2018-12-19T08:48:40.922Z,977.5
2018-12-19T08:49:42.644Z,977.6
2018-12-19T08:50:43.904Z,977.6
2018-12-19T08:51:46.253Z,977.6
2018-12-19T08:52:47.750Z,977.6
2018-12-19T08:53:49.061Z,977.6
2018-12-19T08:54:50.393Z,977.6
2018-12-19T08:55:54.632Z,977.5
2018-12-19T08:56:56.186Z,977.6
2018-12-19T08:57:57.727Z,977.5
2018-12-19T08:59:03.978Z,977.5
2018-12-19T09:00:07.969Z,977.4
2018-12-19T09:01:11.590Z,977.5
2018-12-19T09:02:13.683Z,977.5
2018-12-19T09:03:14.976Z,977.5
2018-12-19T09:04:18.167Z,977.5
2018-12-19T09:05:19.667Z,977.5
2018-12-19T09:06:20.952Z,977.5
2018-12-19T09:07:23.811Z,977.5
2018-12-19T09:08:25.370Z,977.5
2018-12-19T09:09:27.074Z,977.4
2018-12-19T09:10:28.336Z,977.5
2018-12-19T09:11:29.608Z,977.5
2018-12-19T09:12:31.207Z,977.5
2018-12-19T09:13:32.557Z,977.5
2018-12-19T09:14:34.008Z,977.5
2018-12-19T09:15:35.294Z,977.5
2018-12-19T09:16:36.574Z,977.5
2018-12-19T09:17:37.823Z,977.5
2018-12-19T09:18:39.366Z,977.5
2018-12-19T09:19:40.647Z,977.5
2018-12-19T09:20:42.143Z,977.5
2018-12-19T09:21:48.337Z,977.6
2018-12-19T09:22:49.655Z,977.6
2018-12-19T09:23:51.171Z,977.6
2018-12-19T09:24:54.000Z,977.5
2018-12-19T09:25:55.276Z,977.5
2018-12-19T09:26:56.637Z,977.5
2018-12-19T09:27:59.842Z,977.6
2018-12-19T09:29:01.129Z,977.5
2018-12-19T09:30:02.735Z,977.6
2018-12-19T09:31:08.014Z,977.7
2018-12-19T09:32:09.320Z,977.6
2018-12-19T09:33:10.635Z,977.6
2018-12-19T09:34:11.935Z,977.6
2018-12-19T09:35:16.284Z,977.6
2018-12-19T09:36:17.880Z,977.6
2018-12-19T09:37:21.411Z,977.6
2018-12-19T09:38:22.673Z,977.7
2018-12-19T09:39:23.992Z,977.7
2018-12-19T09:40:25.383Z,977.7
2018-12-19T09:41:26.639Z,977.6
2018-12-19T09:42:27.979Z,977.7
2018-12-19T09:43:29.342Z,977.6
2018-12-19T09:44:30.597Z,977.6
2018-12-19T09:45:31.958Z,977.7
2018-12-19T09:46:33.232Z,977.7
2018-12-19T09:47:34.871Z,977.6
2018-12-19T09:48:37.316Z,977.6
2018-12-19T09:49:41.273Z,977.6
2018-12-19T09:50:42.612Z,977.7
2018-12-19T09:51:46.937Z,977.5
2018-12-19T09:52:48.213Z,977.7
2018-12-19T09:53:49.505Z,977.7
2018-12-19T09:54:50.787Z,977.6
2018-12-19T09:55:57.018Z,977.7
2018-12-19T09:57:00.748Z,977.7
2018-12-19T09:58:02.261Z,977.7
2018-12-19T09:59:03.560Z,977.7
2018-12-19T10:00:04.879Z,977.6
2018-12-19T10:01:06.640Z,977.7
2018-12-19T10:02:07.910Z,977.7
2018-12-19T10:03:11.114Z,977.8
2018-12-19T10:04:12.435Z,977.7
2018-12-19T10:05:13.727Z,977.7
2018-12-19T10:06:15.060Z,977.8
2018-12-19T10:07:19.594Z,977.7
2018-12-19T10:08:24.683Z,977.7
2018-12-19T10:09:26.171Z,977.7
2018-12-19T10:10:27.583Z,977.7
2018-12-19T10:11:28.959Z,977.6
2018-12-19T10:12:32.352Z,977.6
2018-12-19T10:13:33.633Z,977.6
2018-12-19T10:14:39.197Z,977.7
2018-12-19T10:15:40.488Z,977.5
2018-12-19T10:16:47.022Z,977.5
2018-12-19T10:17:48.292Z,977.5
2018-12-19T10:18:49.555Z,977.6
2018-12-19T10:19:50.815Z,977.6
2018-12-19T10:20:52.063Z,977.6
2018-12-19T10:21:53.420Z,977.5
2018-12-19T10:22:54.705Z,977.5
2018-12-19T10:23:55.973Z,977.6
2018-12-19T10:24:57.254Z,977.5
2018-12-19T10:25:59.621Z,977.6
2018-12-19T10:27:00.957Z,977.6
2018-12-19T10:28:02.240Z,977.4
2018-12-19T10:29:03.535Z,977.6
2018-12-19T10:30:11.535Z,977.6
2018-12-19T10:31:15.283Z,977.5
2018-12-19T10:32:18.245Z,977.5
2018-12-19T10:33:20.588Z,977.5
2018-12-19T10:34:21.868Z,977.5
2018-12-19T10:35:23.503Z,977.6
2018-12-19T10:36:24.787Z,977.4
2018-12-19T10:37:27.775Z,977.6
2018-12-19T10:38:29.117Z,977.5
2018-12-19T10:39:30.666Z,977.5
2018-12-19T10:40:31.946Z,977.6
2018-12-19T10:41:33.296Z,977.5
2018-12-19T10:42:34.630Z,977.5
2018-12-19T10:43:35.965Z,977.5
2018-12-19T10:44:37.301Z,977.5
2018-12-19T10:45:38.614Z,977.5
2018-12-19T10:46:42.325Z,977.5
2018-12-19T10:47:43.665Z,977.4
2018-12-19T10:48:45.291Z,977.4
2018-12-19T10:49:48.127Z,977.4
2018-12-19T10:50:49.384Z,977.5
2018-12-19T10:51:50.785Z,977.5
2018-12-19T10:52:55.186Z,977.4
2018-12-19T10:53:58.677Z,977.5
2018-12-19T10:55:00.046Z,977.4
2018-12-19T10:56:01.673Z,977.4
2018-12-19T10:57:03.011Z,977.4
2018-12-19T10:58:08.269Z,977.4
2018-12-19T10:59:09.531Z,977.5
2018-12-19T11:00:13.264Z,977.4
2018-12-19T11:01:14.563Z,977.4
2018-12-19T11:02:15.862Z,977.3
2018-12-19T11:03:17.422Z,977.3
2018-12-19T11:04:18.708Z,977.3
2018-12-19T11:05:19.997Z,977.2
2018-12-19T11:06:21.260Z,977.2
2018-12-19T11:07:22.525Z,977.3
2018-12-19T11:08:23.827Z,977.3
2018-12-19T11:09:25.142Z,977.3
2018-12-19T11:10:26.975Z,977.3
2018-12-19T11:11:36.224Z,977.1
2018-12-19T11:12:37.895Z,977.3
2018-12-19T11:13:39.620Z,977.3
2018-12-19T11:14:43.259Z,977.4
2018-12-19T11:15:44.560Z,977.4
2018-12-19T11:16:45.859Z,977.5
2018-12-19T11:17:47.346Z,977.6
2018-12-19T11:18:51.337Z,977.5
2018-12-19T11:19:55.343Z,977.4
2018-12-19T11:20:56.712Z,977.6
2018-12-19T11:22:01.033Z,977.6
2018-12-19T11:23:02.311Z,977.5
2018-12-19T11:24:03.620Z,977.6
2018-12-19T11:25:04.863Z,977.6
2018-12-19T11:26:06.145Z,977.5
2018-12-19T11:27:07.665Z,977.3
2018-12-19T11:28:09.063Z,977.5
2018-12-19T11:29:10.884Z,977.6
2018-12-19T11:30:12.166Z,977.5
2018-12-19T11:31:13.482Z,977.6
2018-12-19T11:32:14.837Z,977.5
2018-12-19T11:33:16.180Z,977.6
2018-12-19T11:34:17.521Z,977.6
2018-12-19T11:35:25.458Z,977.6
2018-12-19T11:36:27.829Z,977.6
2018-12-19T11:37:29.118Z,977.7
2018-12-19T11:38:30.400Z,977.6
2018-12-19T11:39:35.052Z,977.6
2018-12-19T11:40:36.574Z,977.6
2018-12-19T11:41:39.983Z,977.6
2018-12-19T11:42:44.298Z,977.6
2018-12-19T11:43:45.955Z,977.6
2018-12-19T11:44:47.254Z,977.6
2018-12-19T11:45:48.770Z,977.7
2018-12-19T11:46:53.321Z,977.6
2018-12-19T11:47:54.591Z,977.7
2018-12-19T11:48:55.847Z,977.7
2018-12-19T11:50:02.656Z,977.6
2018-12-19T11:51:05.650Z,977.6
2018-12-19T11:52:06.950Z,977.5
2018-12-19T11:53:08.230Z,977.6
2018-12-19T11:54:09.836Z,977.5
2018-12-19T11:55:12.532Z,977.5
2018-12-19T11:56:13.817Z,977.5
2018-12-19T11:57:15.271Z,977.5
2018-12-19T11:58:16.595Z,977.4
2018-12-19T11:59:18.219Z,977.4
2018-12-19T12:00:20.539Z,977.5
2018-12-19T12:01:23.176Z,977.5
2018-12-19T12:02:24.454Z,977.4
2018-12-19T12:03:27.089Z,977.4
2018-12-19T12:04:31.306Z,977.4
2018-12-19T12:05:32.703Z,977.4
2018-12-19T12:06:35.225Z,977.4
2018-12-19T12:07:36.527Z,977.4
2018-12-19T12:08:40.463Z,977.5
2018-12-19T12:09:44.246Z,977.4
2018-12-19T12:10:45.612Z,977.4
2018-12-19T12:11:47.179Z,977.3
2018-12-19T12:12:49.235Z,977.3
2018-12-19T12:13:53.344Z,977.4
2018-12-19T12:14:55.280Z,977.4
2018-12-19T12:15:59.017Z,977.3
2018-12-19T12:17:03.476Z,977.4
2018-12-19T12:18:07.525Z,977.4
2018-12-19T12:19:08.966Z,977.3
2018-12-19T12:20:12.611Z,977.4
2018-12-19T12:21:16.167Z,977.3
2018-12-19T12:22:22.578Z,977.3
2018-12-19T12:23:23.940Z,977.3
2018-12-19T12:24:27.092Z,977.4
2018-12-19T12:25:28.367Z,977.4
2018-12-19T12:26:29.677Z,977.3
2018-12-19T12:27:31.300Z,977.3
2018-12-19T12:28:32.601Z,977.3
2018-12-19T12:29:34.159Z,977.4
2018-12-19T12:30:35.457Z,977.3
2018-12-19T12:31:37.122Z,977.3
2018-12-19T12:32:41.774Z,977.3
2018-12-19T12:33:43.063Z,977.3
2018-12-19T12:34:44.883Z,977.3
2018-12-19T12:35:49.194Z,977.3
2018-12-19T12:36:50.883Z,977.3
2018-12-19T12:37:54.564Z,977.2
2018-12-19T12:38:57.220Z,977.1
2018-12-19T12:39:59.787Z,977.3
2018-12-19T12:41:01.284Z,977.3
2018-12-19T12:42:04.115Z,977.3
2018-12-19T12:43:05.618Z,977.3
2018-12-19T12:44:10.895Z,977.2
2018-12-19T12:45:12.311Z,977.2
2018-12-19T12:46:13.636Z,977.3
2018-12-19T12:47:17.024Z,977.3
2018-12-19T12:48:18.353Z,977.3
2018-12-19T12:49:19.657Z,977.3
2018-12-19T12:50:23.722Z,977.3
2018-12-19T12:51:25.234Z,977.2
2018-12-19T12:52:26.552Z,977.2
2018-12-19T12:53:30.897Z,977.2
2018-12-19T12:54:32.347Z,977.2
2018-12-19T12:55:36.089Z,977.2
2018-12-19T12:56:37.372Z,977.1
2018-12-19T12:57:38.822Z,977.1
2018-12-19T12:58:42.311Z,977.1
2018-12-19T12:59:43.587Z,977.1
2018-12-19T13:00:44.887Z,977.1
2018-12-19T13:01:56.465Z,977.1
2018-12-19T13:02:57.927Z,977.1
2018-12-19T13:03:59.374Z,977.1
2018-12-19T13:05:00.723Z,977.2
2018-12-19T13:06:02.052Z,977.2
2018-12-19T13:07:03.335Z,977.2
2018-12-19T13:08:04.661Z,977.2
2018-12-19T13:09:07.904Z,977.2
2018-12-19T13:10:09.325Z,977.2
2018-12-19T13:11:10.618Z,977.2
2018-12-19T13:12:11.904Z,977.1
2018-12-19T13:13:19.086Z,977.1
2018-12-19T13:14:29.320Z,977.1
2018-12-19T13:15:30.643Z,977.1
2018-12-19T13:16:32.328Z,977.1
2018-12-19T13:17:49.343Z,977.1
2018-12-19T13:19:04.828Z,977.1
2018-12-19T13:20:09.011Z,976.9
2018-12-19T13:21:12.850Z,977
2018-12-19T13:22:14.143Z,977